Time;durP1;ratioP1;P1;durP2;ratioP2;P2;SDS_P1;SDS_P2;PMS_P1;PMS_P2;Temp;Humidity;BMP_temperature;BMP_pressure;BME280_temperature;BME280_humidity;BME280_pressure;Samples;Min_cycle;Max_cycle;Signal;HPM_P1;HPM_P2
2022/05/24 00:01:27;;;;;;;12.48;9.55;;;15.70;99.90;;;;;;4926163;28;20039;-80
2022/05/24 00:03:52;;;;;;;15.65;10.73;;;15.70;99.90;;;;;;4901760;29;20031;-80
2022/05/24 00:06:18;;;;;;;15.68;11.57;;;15.70;99.90;;;;;;4936537;28;20066;-81
2022/05/24 00:08:43;;;;;;;16.00;13.52;;;15.60;99.90;;;;;;4921222;28;20337;-80
2022/05/24 00:11:09;;;;;;;12.82;10.57;;;15.60;99.90;;;;;;4912911;29;20036;-81
2022/05/24 00:13:35;;;;;;;14.00;10.20;;;15.70;99.90;;;;;;4927155;29;20545;-81
2022/05/24 00:16:00;;;;;;;12.95;10.32;;;15.80;99.90;;;;;;4935288;28;20035;-80
2022/05/24 00:18:27;;;;;;;11.68;9.25;;;15.60;99.90;;;;;;4919403;28;20244;-80
2022/05/24 00:20:55;;;;;;;13.90;9.77;;;15.60;99.90;;;;;;4909937;28;20043;-80
2022/05/24 00:23:21;;;;;;;16.85;12.45;;;15.80;99.90;;;;;;4906945;28;20043;-81
2022/05/24 00:25:49;;;;;;;11.35;9.82;;;15.90;99.90;;;;;;4924803;28;20044;-81
2022/05/24 00:28:15;;;;;;;12.30;9.70;;;15.80;99.90;;;;;;4923072;28;20047;-80
2022/05/24 00:30:41;;;;;;;16.23;10.98;;;15.80;99.90;;;;;;4929688;29;20355;-80
2022/05/24 00:33:07;;;;;;;12.88;9.43;;;16.00;99.90;;;;;;4929330;29;20035;-80
2022/05/24 00:35:33;;;;;;;10.38;8.80;;;15.90;99.90;;;;;;4929299;28;20035;-80
2022/05/24 00:37:58;;;;;;;10.13;8.93;;;16.00;99.90;;;;;;4941720;28;20587;-81
2022/05/24 00:40:52;;;;;;;16.00;12.07;;;16.00;99.90;;;;;;4926082;28;20032;-80
2022/05/24 00:43:27;;;;;;;15.18;12.38;;;16.00;99.90;;;;;;4925930;28;20124;-80
2022/05/24 00:45:55;;;;;;;14.60;9.93;;;15.80;99.90;;;;;;4922054;28;20512;-80
2022/05/24 00:48:32;;;;;;;10.68;9.05;;;15.90;99.90;;;;;;4941739;28;20107;-80
2022/05/24 00:50:58;;;;;;;13.63;10.57;;;16.00;99.90;;;;;;4923806;28;20032;-80
2022/05/24 00:53:37;;;;;;;10.65;9.05;;;15.90;99.90;;;;;;4907827;29;20051;-80
2022/05/24 00:56:06;;;;;;;13.20;10.75;;;15.90;99.90;;;;;;4924394;28;20114;-80
2022/05/24 00:58:53;;;;;;;12.88;9.77;;;15.80;99.90;;;;;;4923644;28;20027;-80
2022/05/24 01:01:35;;;;;;;10.15;8.52;;;15.80;99.90;;;;;;4921867;28;20055;-81
2022/05/24 01:04:01;;;;;;;9.75;8.35;;;15.90;99.90;;;;;;4914596;28;20135;-80
2022/05/24 01:06:27;;;;;;;12.57;9.18;;;16.00;99.90;;;;;;4920052;28;20047;-80
2022/05/24 01:08:53;;;;;;;11.13;9.52;;;15.80;99.90;;;;;;4921763;28;20167;-80
2022/05/24 01:11:18;;;;;;;16.25;11.98;;;15.60;99.90;;;;;;4921999;28;20032;-80
2022/05/24 01:13:44;;;;;;;13.77;9.73;;;15.80;99.90;;;;;;4925462;28;20035;-80
2022/05/24 01:16:09;;;;;;;14.25;10.85;;;15.70;99.90;;;;;;4903240;29;20063;-81
2022/05/24 01:18:35;;;;;;;16.17;13.93;;;15.70;99.90;;;;;;4927693;28;20032;-80
2022/05/24 01:21:03;;;;;;;11.68;9.48;;;15.60;99.90;;;;;;4915783;28;20099;-80
2022/05/24 01:23:36;;;;;;;15.32;10.80;;;15.60;99.90;;;;;;4891281;28;20440;-80
2022/05/24 01:26:25;;;;;;;16.05;11.32;;;15.50;99.90;;;;;;4924230;28;20046;-80
2022/05/24 01:28:55;;;;;;;11.85;9.57;;;15.60;99.90;;;;;;4917461;28;20052;-80
2022/05/24 01:31:21;;;;;;;11.40;8.68;;;15.70;99.90;;;;;;4930236;28;20127;-80
2022/05/24 01:36:39;;;;;;;10.55;8.88;;;15.60;99.90;;;;;;4919781;28;20087;-79
2022/05/24 01:39:06;;;;;;;11.40;8.77;;;15.50;99.90;;;;;;4913305;28;20035;-80
2022/05/24 01:41:41;;;;;;;15.13;9.93;;;15.50;99.90;;;;;;4905538;28;20023;-80
2022/05/24 01:44:07;;;;;;;12.45;9.27;;;15.60;99.90;;;;;;4926669;28;20055;-80
2022/05/24 01:46:43;;;;;;;12.15;10.27;;;15.50;99.90;;;;;;4908714;29;20486;-80
2022/05/24 01:49:24;;;;;;;11.93;10.18;;;15.50;99.90;;;;;;4912222;29;20036;-79
2022/05/24 01:52:13;;;;;;;10.68;9.18;;;15.50;99.90;;;;;;4911238;28;20511;-80
2022/05/24 01:54:40;;;;;;;15.20;13.40;;;15.40;99.90;;;;;;4941874;28;20040;-80
2022/05/24 01:57:17;;;;;;;13.55;9.23;;;15.40;99.90;;;;;;4921745;28;20514;-80
2022/05/24 01:59:43;;;;;;;12.32;10.07;;;15.20;99.90;;;;;;4921373;28;20475;-79
2022/05/24 02:02:09;;;;;;;12.00;9.38;;;15.30;99.90;;;;;;4939380;28;20608;-80
2022/05/24 02:04:34;;;;;;;11.95;9.57;;;15.40;99.90;;;;;;4924109;29;20040;-80
2022/05/24 02:07:08;;;;;;;15.43;12.82;;;15.50;99.90;;;;;;4907213;28;20041;-80
2022/05/24 02:09:36;;;;;;;11.25;9.27;;;15.40;99.90;;;;;;4935272;28;20510;-80
2022/05/24 02:12:05;;;;;;;16.88;12.63;;;15.50;99.90;;;;;;4920288;28;20655;-80
2022/05/24 02:14:35;;;;;;;13.00;9.95;;;15.50;99.90;;;;;;4931498;28;20041;-80
2022/05/24 02:17:09;;;;;;;14.55;10.27;;;15.40;99.90;;;;;;4921352;28;20031;-80
2022/05/24 02:19:35;;;;;;;13.18;10.30;;;15.40;99.90;;;;;;4933311;28;20042;-80
2022/05/24 02:22:06;;;;;;;22.80;15.15;;;15.40;99.90;;;;;;4922663;28;20301;-80
2022/05/24 02:24:32;;;;;;;12.63;10.45;;;15.20;99.90;;;;;;4923572;29;22731;-80
2022/05/24 02:26:57;;;;;;;17.98;13.27;;;15.30;99.90;;;;;;4939565;28;20043;-80
2022/05/24 02:29:23;;;;;;;14.30;10.55;;;15.20;99.90;;;;;;4903292;28;20119;-80
2022/05/24 02:31:49;;;;;;;14.40;11.18;;;15.30;99.90;;;;;;4922629;28;20154;-79
2022/05/24 02:34:14;;;;;;;14.13;10.65;;;15.20;99.90;;;;;;4900757;29;20114;-80
2022/05/24 02:36:40;;;;;;;16.17;10.45;;;15.20;99.90;;;;;;4921884;29;20108;-80
2022/05/24 02:39:06;;;;;;;12.48;9.50;;;15.20;99.90;;;;;;4921831;28;20042;-80
2022/05/24 02:41:32;;;;;;;14.50;10.23;;;15.00;99.90;;;;;;4922506;28;20028;-80
2022/05/24 02:44:00;;;;;;;13.00;10.90;;;15.10;99.90;;;;;;4912347;28;20039;-80
2022/05/24 02:46:27;;;;;;;12.68;9.73;;;15.10;99.90;;;;;;4920024;28;20095;-80
2022/05/24 02:48:52;;;;;;;12.07;9.52;;;15.20;99.90;;;;;;4936536;28;20038;-80
2022/05/24 02:51:18;;;;;;;17.60;10.25;;;15.10;99.90;;;;;;4935885;28;20019;-80
2022/05/24 02:53:43;;;;;;;14.85;10.23;;;15.00;99.90;;;;;;4901079;28;20042;-80
2022/05/24 02:56:09;;;;;;;12.07;8.68;;;15.10;99.90;;;;;;4922207;29;20087;-81
2022/05/24 02:58:35;;;;;;;12.00;8.90;;;15.00;99.90;;;;;;4937232;28;20062;-81
2022/05/24 03:01:00;;;;;;;15.30;10.10;;;15.10;99.90;;;;;;4912124;29;20040;-81
2022/05/24 03:03:27;;;;;;;11.88;8.48;;;15.10;99.90;;;;;;4904919;28;20055;-81
2022/05/24 03:05:53;;;;;;;10.48;7.18;;;14.80;99.90;;;;;;4935967;28;20071;-81
2022/05/24 03:11:02;;;;;;;10.80;6.30;;;14.90;99.90;;;;;;4936348;28;20169;-80
2022/05/24 03:16:14;;;;;;;11.35;7.28;;;14.80;99.90;;;;;;4935081;28;20503;-81
2022/05/24 03:18:40;;;;;;;11.70;7.18;;;14.70;99.90;;;;;;4917705;29;20036;-81
2022/05/24 03:21:06;;;;;;;10.55;6.38;;;14.70;99.90;;;;;;4927759;28;20427;-80
2022/05/24 03:23:32;;;;;;;6.18;4.80;;;14.80;99.90;;;;;;4918658;28;20169;-80
2022/05/24 03:25:57;;;;;;;10.20;5.43;;;14.70;99.90;;;;;;4919269;28;20471;-81
2022/05/24 03:28:23;;;;;;;8.18;4.60;;;14.70;99.90;;;;;;4925694;28;20070;-81
2022/05/24 03:30:48;;;;;;;6.80;4.28;;;14.60;99.90;;;;;;4936780;28;20055;-81
2022/05/24 03:33:14;;;;;;;7.57;5.00;;;14.60;99.90;;;;;;4919948;28;20339;-80
2022/05/24 03:35:40;;;;;;;5.22;3.75;;;14.70;99.90;;;;;;4935904;28;20483;-80
2022/05/24 03:38:06;;;;;;;7.32;4.30;;;14.70;99.90;;;;;;4927550;28;20031;-81
2022/05/24 03:40:32;;;;;;;8.15;4.20;;;14.60;99.90;;;;;;4920659;28;20038;-80
2022/05/24 03:42:57;;;;;;;7.63;3.80;;;14.60;99.90;;;;;;4920273;28;20127;-80
2022/05/24 03:45:23;;;;;;;6.35;3.58;;;14.70;99.90;;;;;;4921720;28;20094;-81
2022/05/24 03:47:48;;;;;;;6.93;4.10;;;14.60;99.90;;;;;;4918795;28;20035;-80
2022/05/24 03:50:14;;;;;;;6.22;4.00;;;14.50;99.90;;;;;;4920998;28;20051;-80
2022/05/24 03:52:40;;;;;;;6.85;3.97;;;14.60;99.90;;;;;;4918455;29;20027;-80
2022/05/24 03:55:06;;;;;;;6.43;4.00;;;14.70;99.90;;;;;;4927305;28;20024;-80
2022/05/24 04:00:18;;;;;;;8.80;3.95;;;14.60;99.90;;;;;;4928961;28;20035;-80
2022/05/24 04:02:44;;;;;;;6.93;3.75;;;14.50;99.90;;;;;;4937897;28;20414;-80
2022/05/24 04:05:10;;;;;;;5.72;3.88;;;14.50;99.90;;;;;;4926815;29;20036;-80
2022/05/24 04:07:36;;;;;;;7.13;4.05;;;14.50;99.90;;;;;;4937805;28;20040;-80
2022/05/24 04:10:02;;;;;;;7.15;4.00;;;14.50;99.90;;;;;;4921960;28;20405;-80
2022/05/24 04:12:28;;;;;;;6.15;3.90;;;14.50;99.90;;;;;;4923292;28;20139;-80
2022/05/24 04:14:54;;;;;;;6.40;3.75;;;14.60;99.90;;;;;;4937240;28;20135;-80
2022/05/24 04:17:20;;;;;;;7.65;4.00;;;14.50;99.90;;;;;;4923610;28;20054;-80
2022/05/24 04:19:45;;;;;;;4.78;3.65;;;14.60;99.90;;;;;;4932846;28;20027;-80
2022/05/24 04:22:11;;;;;;;6.13;3.88;;;14.60;99.90;;;;;;4923070;28;20038;-80
2022/05/24 04:24:36;;;;;;;6.65;4.47;;;14.60;99.90;;;;;;4942021;28;20032;-80
2022/05/24 04:27:04;;;;;;;7.38;3.65;;;14.60;99.90;;;;;;4921074;28;20043;-80
2022/05/24 04:29:30;;;;;;;6.35;4.00;;;14.50;99.90;;;;;;4909758;28;20051;-80
2022/05/24 04:31:55;;;;;;;8.63;4.03;;;14.60;99.90;;;;;;4938167;28;20447;-80
2022/05/24 04:34:21;;;;;;;8.23;3.83;;;14.50;99.90;;;;;;4936426;28;20520;-81
2022/05/24 04:36:46;;;;;;;6.30;3.70;;;14.60;99.90;;;;;;4922965;28;20171;-80
2022/05/24 04:39:13;;;;;;;8.90;4.07;;;14.50;99.90;;;;;;4938045;28;20145;-81
2022/05/24 04:44:23;;;;;;;7.38;3.50;;;14.70;99.90;;;;;;4936598;28;20130;-80
2022/05/24 04:47:07;;;;;;;6.82;3.75;;;14.50;99.90;;;;;;4910967;28;20786;-81
2022/05/24 04:49:32;;;;;;;4.25;3.05;;;14.40;99.90;;;;;;4930017;28;20556;-81
2022/05/24 04:51:58;;;;;;;6.18;2.85;;;14.50;99.90;;;;;;4937130;28;20158;-81
2022/05/24 04:54:24;;;;;;;12.25;4.10;;;14.40;99.90;;;;;;4908043;28;20482;-81
2022/05/24 04:56:49;;;;;;;5.53;3.22;;;14.40;99.90;;;;;;4905346;29;20072;-81
2022/05/24 04:59:16;;;;;;;7.72;3.20;;;14.30;99.90;;;;;;4887963;28;20052;-81
2022/05/24 05:01:42;;;;;;;8.02;3.47;;;14.40;99.90;;;;;;4925855;29;20031;-81
2022/05/24 05:04:08;;;;;;;9.15;3.55;;;14.40;99.90;;;;;;4925507;28;20024;-81
2022/05/24 05:06:33;;;;;;;4.82;3.30;;;14.50;99.90;;;;;;4926235;28;20418;-80
2022/05/24 05:08:59;;;;;;;6.72;3.67;;;14.50;99.90;;;;;;4922682;28;20370;-82
2022/05/24 05:11:24;;;;;;;6.22;3.20;;;14.50;99.90;;;;;;4923000;28;20488;-82
2022/05/24 05:13:51;;;;;;;4.60;2.55;;;14.40;99.90;;;;;;4924552;28;20039;-82
2022/05/24 05:16:16;;;;;;;5.55;3.28;;;14.30;99.90;;;;;;4925601;28;20032;-82
2022/05/24 05:18:42;;;;;;;4.60;2.65;;;14.30;99.90;;;;;;4921302;28;20173;-81
2022/05/24 05:21:08;;;;;;;8.98;3.55;;;14.40;99.90;;;;;;4933132;28;20051;-81
2022/05/24 05:23:33;;;;;;;7.20;3.00;;;13.90;99.90;;;;;;4939314;28;20035;-81
2022/05/24 05:25:59;;;;;;;7.45;3.75;;;14.10;99.90;;;;;;4914927;28;20038;-81
2022/05/24 05:28:25;;;;;;;6.40;1.52;;;14.10;99.90;;;;;;4938780;28;20491;-82
2022/05/24 05:33:35;;;;;;;8.23;3.92;;;14.00;99.90;;;;;;4937529;28;20035;-82
2022/05/24 05:36:01;;;;;;;9.07;3.15;;;14.00;99.90;;;;;;4920851;28;20035;-82
2022/05/24 05:38:27;;;;;;;5.40;2.35;;;13.90;99.90;;;;;;4938959;28;20385;-82
2022/05/24 05:40:53;;;;;;;7.25;3.03;;;13.90;99.90;;;;;;4940235;28;20122;-82
2022/05/24 05:43:19;;;;;;;4.72;2.28;;;14.00;99.90;;;;;;4915800;28;20461;-82
2022/05/24 05:45:52;;;;;;;5.38;3.08;;;14.10;99.90;;;;;;4908729;29;20036;-83
2022/05/24 05:48:17;;;;;;;8.38;3.22;;;14.00;99.90;;;;;;4905229;28;20030;-83
2022/05/24 05:50:44;;;;;;;6.28;2.75;;;13.90;99.90;;;;;;4926447;29;20028;-83
2022/05/24 05:53:09;;;;;;;4.88;2.35;;;13.80;99.90;;;;;;4924575;28;20098;-82
2022/05/24 05:55:37;;;;;;;8.85;3.10;;;13.90;99.90;;;;;;4919343;28;20063;-83
2022/05/24 05:58:03;;;;;;;6.95;2.78;;;13.80;99.90;;;;;;4921989;28;20034;-82
2022/05/24 06:00:29;;;;;;;4.93;2.30;;;13.60;99.90;;;;;;4906889;28;20023;-82
2022/05/24 06:02:55;;;;;;;3.42;2.30;;;13.70;99.90;;;;;;4923856;28;20038;-82
2022/05/24 06:05:21;;;;;;;2.15;1.30;;;13.70;99.90;;;;;;4905535;28;20448;-82
2022/05/24 06:07:47;;;;;;;6.85;2.10;;;13.60;99.90;;;;;;4913617;29;20027;-82
2022/05/24 06:10:12;;;;;;;4.82;2.40;;;13.70;99.90;;;;;;4902064;29;20035;-82
2022/05/24 06:12:38;;;;;;;4.72;1.75;;;13.70;99.90;;;;;;4926190;28;20024;-82
2022/05/24 06:15:04;;;;;;;4.05;2.03;;;13.60;99.90;;;;;;4908678;28;20028;-82
2022/05/24 06:17:29;;;;;;;1.75;1.13;;;13.60;99.90;;;;;;4908913;29;20034;-82
2022/05/24 06:19:59;;;;;;;6.57;1.90;;;13.50;99.90;;;;;;4919012;28;20035;-82
2022/05/24 06:22:24;;;;;;;4.43;1.70;;;13.60;99.90;;;;;;4939286;28;20054;-81
2022/05/24 06:24:50;;;;;;;7.43;1.85;;;13.60;99.90;;;;;;4913899;29;20024;-81
2022/05/24 06:27:19;;;;;;;7.78;2.25;;;13.50;99.90;;;;;;4910514;29;20042;-84
2022/05/24 06:29:45;;;;;;;5.38;1.75;;;13.40;99.90;;;;;;4920806;29;20027;-84
2022/05/24 06:32:11;;;;;;;1.23;0.98;;;13.40;99.90;;;;;;4906122;28;20031;-81
2022/05/24 11:52:32;;;;;;;2.08;1.08;;;22.10;93.00;;;;;;4972293;28;20042;-83
2022/05/24 11:54:58;;;;;;;3.15;0.90;;;22.30;90.50;;;;;;4981325;28;20443;-84
2022/05/24 11:57:25;;;;;;;1.38;0.70;;;22.50;92.10;;;;;;4967612;28;20061;-84
2022/05/24 11:59:51;;;;;;;3.67;1.25;;;22.70;90.30;;;;;;4967353;28;20126;-84
2022/05/24 12:02:19;;;;;;;2.83;0.68;;;22.80;89.10;;;;;;4929247;28;20027;-81
2022/05/24 12:08:05;;;;;;;3.22;1.13;;;23.70;90.80;;;;;;4963764;28;20087;-81
2022/05/24 12:10:46;;;;;;;2.22;0.85;;;24.10;87.30;;;;;;4951401;28;20030;-81
2022/05/24 12:13:14;;;;;;;1.75;0.60;;;24.40;91.20;;;;;;4945490;28;20517;-82
2022/05/24 12:15:42;;;;;;;1.38;0.70;;;24.60;88.00;;;;;;4975371;28;20031;-82
2022/05/24 12:18:08;;;;;;;0.60;0.60;;;25.10;85.80;;;;;;4972278;28;20031;-82
2022/05/24 12:20:33;;;;;;;2.58;0.65;;;24.80;78.50;;;;;;4977233;28;20426;-83
2022/05/24 12:23:13;;;;;;;0.88;0.50;;;24.80;87.50;;;;;;4987294;28;20358;-83
2022/05/24 12:26:02;;;;;;;0.68;0.60;;;24.40;74.70;;;;;;4990475;28;20038;-83
2022/05/24 12:28:29;;;;;;;0.85;0.55;;;24.60;74.70;;;;;;4961155;28;20062;-83
2022/05/24 12:30:57;;;;;;;1.77;0.52;;;24.60;71.70;;;;;;4957258;28;20034;-83
2022/05/24 12:33:36;;;;;;;1.13;0.60;;;24.30;78.70;;;;;;4964454;28;20055;-83
2022/05/24 12:36:07;;;;;;;0.50;0.40;;;24.60;79.70;;;;;;4962648;28;20039;-83
2022/05/24 12:38:34;;;;;;;4.43;0.70;;;24.20;79.60;;;;;;4978585;28;20060;-83
2022/05/24 12:41:15;;;;;;;0.63;0.43;;;24.30;75.50;;;;;;4994319;28;20393;-83
2022/05/24 12:44:04;;;;;;;1.17;0.60;;;24.30;74.20;;;;;;4964974;28;20023;-83
2022/05/24 12:46:33;;;;;;;0.50;0.32;;;24.30;77.90;;;;;;4930719;28;20041;-83
2022/05/24 12:49:00;;;;;;;1.75;0.70;;;24.30;75.30;;;;;;4945897;28;20441;-83
2022/05/24 12:51:26;;;;;;;6.15;1.42;;;24.20;78.30;;;;;;5001232;28;20031;-82
2022/05/24 12:53:51;;;;;;;2.25;1.00;;;23.60;87.20;;;;;;4947513;28;20092;-82
2022/05/24 12:56:19;;;;;;;2.38;1.05;;;23.10;90.20;;;;;;4948937;28;20525;-82
2022/05/24 12:58:46;;;;;;;2.47;0.93;;;22.60;90.30;;;;;;4983307;28;20100;-82
2022/05/24 13:01:19;;;;;;;1.42;0.60;;;22.30;91.60;;;;;;4979749;28;20390;-82
2022/05/24 13:04:09;;;;;;;2.60;0.90;;;22.00;92.00;;;;;;4975708;28;20031;-82
2022/05/24 13:06:36;;;;;;;0.82;0.50;;;21.90;91.90;;;;;;4980696;28;20114;-82
2022/05/24 13:09:18;;;;;;;1.65;0.90;;;21.80;92.00;;;;;;4962778;28;20121;-82
2022/05/24 13:11:54;;;;;;;2.03;0.77;;;21.80;93.00;;;;;;4979053;28;20026;-82
2022/05/24 13:14:35;;;;;;;5.15;0.80;;;21.50;93.90;;;;;;4934435;28;20590;-82
2022/05/24 13:17:00;;;;;;;2.75;0.80;;;22.10;92.50;;;;;;4978353;28;20030;-83
2022/05/24 13:19:26;;;;;;;1.45;0.73;;;22.20;91.30;;;;;;4983903;28;20504;-82
2022/05/24 13:21:53;;;;;;;1.15;0.50;;;22.30;91.70;;;;;;4976838;28;20066;-83
2022/05/24 13:24:18;;;;;;;0.75;0.63;;;22.50;91.50;;;;;;4992019;28;20561;-83
2022/05/24 13:27:04;;;;;;;1.83;0.70;;;22.30;91.90;;;;;;4998987;28;20041;-82
2022/05/24 13:29:29;;;;;;;0.70;0.55;;;22.40;89.00;;;;;;4967559;28;20066;-83
2022/05/24 13:34:55;;;;;;;1.80;0.60;;;22.00;86.20;;;;;;4995068;28;20085;-83
2022/05/24 13:37:21;;;;;;;1.13;0.50;;;22.20;89.60;;;;;;4981744;28;20035;-83
2022/05/24 13:39:49;;;;;;;1.33;0.50;;;22.30;86.70;;;;;;4933784;28;20034;-83
2022/05/24 13:42:18;;;;;;;1.02;0.40;;;22.80;86.50;;;;;;4995379;28;20035;-83
2022/05/24 13:45:14;;;;;;;0.95;0.28;;;23.20;83.00;;;;;;4979178;28;20056;-83
2022/05/24 13:48:00;;;;;;;1.77;0.60;;;23.40;86.60;;;;;;4981430;28;20027;-83
2022/05/24 13:50:37;;;;;;;0.30;0.30;;;23.50;81.90;;;;;;4973776;28;20030;-83
2022/05/24 13:53:08;;;;;;;0.88;0.75;;;23.40;80.90;;;;;;4978126;28;20054;-83
2022/05/24 13:55:36;;;;;;;1.55;0.50;;;23.30;76.80;;;;;;4979954;28;20023;-83
2022/05/24 13:58:18;;;;;;;0.80;0.30;;;23.60;78.30;;;;;;4961835;28;20026;-83
2022/05/24 14:00:54;;;;;;;1.25;0.40;;;23.60;81.00;;;;;;4980163;28;20059;-82
2022/05/24 14:03:25;;;;;;;0.32;0.32;;;23.10;79.70;;;;;;4945548;28;20417;-82
2022/05/24 14:06:08;;;;;;;3.03;0.63;;;22.90;78.80;;;;;;4948538;28;20170;-82
2022/05/24 14:08:35;;;;;;;4.03;0.70;;;22.50;83.30;;;;;;4976397;28;20055;-82
2022/05/24 14:11:01;;;;;;;0.45;0.40;;;22.10;86.80;;;;;;4967195;28;20025;-81
2022/05/24 14:13:26;;;;;;;3.30;0.70;;;21.20;90.00;;;;;;4977940;28;20027;-81
2022/05/24 14:15:52;;;;;;;0.50;0.40;;;20.80;92.10;;;;;;4976590;28;20267;-81
2022/05/24 14:18:18;;;;;;;1.08;0.60;;;20.50;91.80;;;;;;4974079;28;20031;-81
2022/05/24 14:20:43;;;;;;;1.40;0.68;;;20.40;93.70;;;;;;4980949;28;20485;-81
2022/05/24 14:23:09;;;;;;;0.60;0.50;;;20.60;94.10;;;;;;4979984;28;20031;-81
2022/05/24 14:25:35;;;;;;;0.88;0.57;;;20.70;95.60;;;;;;4979188;28;20096;-81
2022/05/24 14:28:00;;;;;;;1.17;0.45;;;21.00;94.90;;;;;;4989082;28;20027;-81
2022/05/24 14:30:27;;;;;;;2.40;0.60;;;21.30;96.90;;;;;;4973211;28;20031;-81
2022/05/24 14:32:59;;;;;;;0.50;0.50;;;21.40;96.40;;;;;;4977477;28;20046;-80
2022/05/24 14:35:25;;;;;;;2.60;0.93;;;21.70;93.80;;;;;;4947021;28;20050;-82
2022/05/24 14:37:50;;;;;;;1.55;0.63;;;21.90;96.70;;;;;;4943278;28;20046;-81
2022/05/24 14:40:16;;;;;;;1.90;0.63;;;22.20;95.60;;;;;;4981610;28;20034;-81
2022/05/24 14:42:42;;;;;;;0.22;0.20;;;22.30;92.90;;;;;;4965101;28;20113;-81
2022/05/24 14:45:08;;;;;;;0.70;0.47;;;22.60;92.90;;;;;;4976082;28;20054;-81
2022/05/24 14:47:34;;;;;;;1.52;0.77;;;22.70;93.40;;;;;;4982943;28;20046;-81
2022/05/24 14:49:59;;;;;;;2.17;0.57;;;22.80;93.20;;;;;;4974775;28;20043;-82
2022/05/24 14:52:26;;;;;;;3.63;0.63;;;22.70;93.80;;;;;;4966274;28;20386;-81
2022/05/24 14:54:51;;;;;;;0.80;0.60;;;22.70;92.10;;;;;;4929859;28;20027;-81
2022/05/24 14:57:17;;;;;;;2.00;0.65;;;22.70;93.00;;;;;;4995601;28;20049;-81
2022/05/24 14:59:43;;;;;;;1.23;0.68;;;22.70;92.00;;;;;;4934709;28;20031;-81
2022/05/24 15:02:09;;;;;;;2.42;0.60;;;22.90;93.30;;;;;;4974360;28;20038;-81
2022/05/24 15:04:34;;;;;;;1.80;0.60;;;23.20;93.50;;;;;;4933438;28;20519;-81
2022/05/24 15:15:20;;;;;;;1.50;0.73;;;23.90;90.00;;;;;;4948783;28;20081;-79
2022/05/24 15:17:50;;;;;;;0.95;0.47;;;23.80;91.80;;;;;;4988024;28;20371;-78
2022/05/24 15:20:17;;;;;;;0.63;0.32;;;23.50;85.50;;;;;;4980434;28;20489;-78
2022/05/24 15:22:52;;;;;;;1.52;0.60;;;23.30;84.40;;;;;;4983147;28;20446;-78
2022/05/24 15:25:20;;;;;;;1.10;0.50;;;23.20;87.80;;;;;;4974187;28;20344;-79
2022/05/24 15:27:46;;;;;;;1.65;0.75;;;23.00;83.90;;;;;;4934452;28;20031;-79
2022/05/24 15:30:12;;;;;;;1.65;0.47;;;23.00;82.90;;;;;;4992332;28;20039;-79
2022/05/24 15:32:37;;;;;;;1.27;0.63;;;22.80;83.10;;;;;;4965335;28;20034;-79
2022/05/24 15:35:05;;;;;;;1.33;0.77;;;22.50;83.20;;;;;;4989251;28;20034;-79
2022/05/24 15:37:31;;;;;;;0.40;0.40;;;22.50;86.00;;;;;;4971209;28;20031;-78
2022/05/24 15:39:57;;;;;;;1.92;0.90;;;22.40;84.60;;;;;;4978837;28;20058;-79
2022/05/24 15:42:22;;;;;;;1.30;0.52;;;22.20;82.90;;;;;;4977214;28;20042;-79
2022/05/24 15:44:48;;;;;;;2.30;1.15;;;22.00;81.70;;;;;;4961847;28;20054;-79
2022/05/24 15:47:13;;;;;;;0.95;0.47;;;22.00;82.00;;;;;;4996367;28;20030;-79
2022/05/24 15:49:39;;;;;;;1.35;0.80;;;21.90;83.70;;;;;;4990853;28;20030;-79
2022/05/24 15:52:07;;;;;;;0.40;0.40;;;21.90;81.40;;;;;;4948075;28;20027;-79
2022/05/24 15:54:34;;;;;;;3.13;0.60;;;21.90;83.50;;;;;;4981496;28;20396;-79
2022/05/24 15:56:59;;;;;;;0.98;0.70;;;21.80;81.80;;;;;;4986528;28;20053;-79
2022/05/24 15:59:25;;;;;;;1.00;0.75;;;21.80;83.30;;;;;;4991564;28;20073;-79
2022/05/24 16:01:52;;;;;;;0.93;0.75;;;21.90;84.70;;;;;;4950974;28;20104;-79
2022/05/24 16:10:02;;;;;;;7.22;0.63;;;22.10;85.00;;;;;;4993352;28;20448;-79
2022/05/24 16:10:02;;;;;;;1.85;0.38;;;22.20;83.50;;;;;;4997255;28;20926;-79
2022/05/24 16:12:28;;;;;;;0.90;0.65;;;22.40;80.50;;;;;;4980336;28;20638;-79
2022/05/24 16:14:54;;;;;;;3.60;0.60;;;22.50;82.90;;;;;;4981870;28;20042;-79
2022/05/24 16:17:19;;;;;;;0.40;0.38;;;22.50;82.40;;;;;;4982403;28;20448;-80
2022/05/24 16:19:45;;;;;;;2.05;0.65;;;22.60;80.50;;;;;;4998558;28;20125;-79
2022/05/24 16:22:10;;;;;;;1.80;0.50;;;22.40;79.10;;;;;;4980800;28;20063;-79
2022/05/24 16:24:36;;;;;;;0.75;0.50;;;22.50;78.00;;;;;;4984467;28;20035;-79
2022/05/24 16:27:02;;;;;;;1.33;0.30;;;22.70;81.50;;;;;;4945112;28;20496;-79
2022/05/24 16:29:28;;;;;;;2.17;0.60;;;22.80;77.80;;;;;;4964538;28;20031;-79
2022/05/24 16:31:53;;;;;;;1.58;0.50;;;23.10;83.10;;;;;;4984764;28;20089;-79
2022/05/24 16:34:19;;;;;;;1.58;0.43;;;23.50;82.40;;;;;;4928289;28;20124;-79
2022/05/24 16:36:45;;;;;;;2.30;0.60;;;23.70;80.90;;;;;;4947028;28;20121;-80
2022/05/24 16:39:12;;;;;;;0.80;0.52;;;23.50;75.90;;;;;;4981190;28;20455;-80
2022/05/24 16:41:37;;;;;;;2.28;0.57;;;23.30;77.40;;;;;;4997234;28;20027;-80
2022/05/24 16:44:04;;;;;;;0.93;0.63;;;23.40;80.00;;;;;;4960684;28;20488;-80
2022/05/24 16:46:30;;;;;;;1.25;0.35;;;23.60;79.60;;;;;;4929287;28;20191;-80
2022/05/24 16:48:56;;;;;;;1.27;0.50;;;23.60;78.20;;;;;;4994432;28;20203;-80
2022/05/24 16:51:29;;;;;;;2.22;0.47;;;23.50;74.90;;;;;;4977270;28;20042;-80
2022/05/24 16:53:55;;;;;;;2.22;0.60;;;23.70;77.90;;;;;;4945771;28;20038;-80
2022/05/24 16:59:05;;;;;;;1.45;0.80;;;23.60;78.70;;;;;;4958058;28;20558;-80
2022/05/24 17:01:31;;;;;;;0.50;0.50;;;24.00;79.70;;;;;;4978827;28;20030;-81
2022/05/24 17:03:56;;;;;;;1.48;0.55;;;24.10;78.80;;;;;;4967848;28;20038;-81
2022/05/24 17:06:22;;;;;;;2.42;0.60;;;24.30;78.50;;;;;;4995476;28;20126;-80
2022/05/24 17:08:48;;;;;;;1.85;0.60;;;24.30;77.90;;;;;;4984144;28;20026;-81
2022/05/24 17:11:18;;;;;;;1.95;0.65;;;24.40;75.80;;;;;;4977532;28;20518;-81
2022/05/24 17:13:43;;;;;;;0.70;0.68;;;24.30;78.20;;;;;;4989321;28;20038;-81
2022/05/24 17:16:09;;;;;;;0.95;0.52;;;24.50;75.80;;;;;;4980088;28;20034;-81
2022/05/24 17:18:34;;;;;;;2.85;0.75;;;24.20;76.70;;;;;;4949708;28;20078;-81
2022/05/24 17:21:01;;;;;;;1.20;0.70;;;24.40;76.40;;;;;;4966465;28;20152;-79
2022/05/24 17:23:26;;;;;;;2.17;0.50;;;24.10;75.40;;;;;;4981095;28;20027;-82
2022/05/24 17:25:52;;;;;;;0.95;0.75;;;23.70;73.90;;;;;;4983575;28;20033;-82
2022/05/24 17:28:18;;;;;;;0.85;0.50;;;23.30;73.70;;;;;;4965022;28;20023;-81
2022/05/24 17:30:46;;;;;;;1.80;0.80;;;23.20;75.20;;;;;;4948764;28;20126;-81
2022/05/24 17:33:12;;;;;;;1.45;0.60;;;23.10;75.60;;;;;;4999686;28;20035;-80
2022/05/24 17:35:39;;;;;;;0.57;0.52;;;23.00;75.60;;;;;;4966220;28;20105;-81
2022/05/24 17:38:07;;;;;;;0.75;0.57;;;22.70;75.70;;;;;;4973033;28;20117;-80
2022/05/24 17:40:34;;;;;;;2.00;1.10;;;22.40;74.60;;;;;;4948361;28;20037;-80
2022/05/24 17:42:59;;;;;;;2.45;0.70;;;22.20;76.30;;;;;;4969209;28;20062;-80
2022/05/24 17:45:25;;;;;;;1.50;0.55;;;21.90;75.70;;;;;;4950297;28;20448;-80
2022/05/24 17:47:51;;;;;;;2.28;0.68;;;21.70;76.30;;;;;;4945444;28;20609;-80
2022/05/24 17:50:17;;;;;;;5.72;0.65;;;21.40;76.10;;;;;;4982039;28;20516;-80
2022/05/24 17:52:42;;;;;;;3.15;0.63;;;20.90;77.10;;;;;;4966357;28;20122;-80
2022/05/24 17:55:09;;;;;;;0.70;0.50;;;20.60;77.90;;;;;;4964731;28;20121;-79
2022/05/24 17:57:34;;;;;;;3.17;0.70;;;20.40;77.80;;;;;;4949584;28;20174;-79
2022/05/24 18:00:00;;;;;;;2.28;0.70;;;20.20;78.50;;;;;;4949898;28;20038;-80
2022/05/24 18:02:27;;;;;;;0.95;0.65;;;20.50;77.90;;;;;;4949754;28;20031;-79
2022/05/24 18:04:53;;;;;;;1.63;0.63;;;20.60;79.10;;;;;;4985475;28;20125;-79
2022/05/24 18:07:18;;;;;;;0.63;0.50;;;20.80;78.40;;;;;;4947838;28;20556;-80
2022/05/24 18:09:45;;;;;;;2.10;0.60;;;20.70;77.70;;;;;;4967063;28;20405;-80
2022/05/24 18:12:11;;;;;;;0.40;0.40;;;20.40;76.10;;;;;;4982777;28;20033;-80
2022/05/24 18:14:39;;;;;;;0.40;0.40;;;20.50;76.10;;;;;;4999281;28;20032;-80
2022/05/24 18:17:07;;;;;;;0.82;0.40;;;20.60;75.30;;;;;;4929207;28;20118;-80
2022/05/24 18:19:34;;;;;;;2.65;0.30;;;20.60;75.90;;;;;;4964166;28;20105;-80
2022/05/24 18:22:01;;;;;;;0.60;0.30;;;20.60;74.70;;;;;;4934107;28;20035;-80
2022/05/24 18:24:55;;;;;;;0.57;0.30;;;20.40;75.10;;;;;;4982406;28;20505;-79
2022/05/24 18:33:09;;;;;;;1.38;0.40;;;20.00;74.80;;;;;;4995581;28;20724;-79
2022/05/24 18:35:50;;;;;;;0.65;0.32;;;19.70;75.00;;;;;;4984199;28;20150;-79
2022/05/24 18:38:16;;;;;;;0.30;0.30;;;19.60;75.20;;;;;;4963386;28;20034;-79
2022/05/24 18:40:42;;;;;;;0.40;0.40;;;19.50;75.70;;;;;;4930844;28;20394;-80
2022/05/24 18:43:08;;;;;;;0.88;0.50;;;19.40;75.70;;;;;;4946213;28;20045;-79
2022/05/24 18:45:34;;;;;;;1.80;0.40;;;19.20;75.70;;;;;;4980602;28;20031;-79
2022/05/24 18:48:01;;;;;;;1.13;0.30;;;19.10;75.90;;;;;;4981582;28;20037;-78